You are not logged in, Click here to log in
機場資訊:RJAA Welcome to Taiwan Airways 台灣虛擬航空
ICAO: RJAA Country: 日本千葉縣成田市
Latitude: 35.772 Longitude: 140.393
Total Arrivals: 158 Total Departures: 149
Latest Arrival: NH8562 (ROAH-RJAA)CHU. CHUHAO Latest Departure: IT201 (RJAA-RCTP)CHU. CHUHAO
Scenery:
METAR : RJAA 170530Z 01006KT 310V050 9999 FEW030 SCT/// 17/05 Q1021 NOSIG

成田国際空港NRT